Time;durP1;ratioP1;P1;durP2;ratioP2;P2;SDS_P1;SDS_P2;PMS_P1;PMS_P2;Temp;Humidity;BMP_temperature;BMP_pressure;BME280_temperature;BME280_humidity;BME280_pressure;Samples;Min_cycle;Max_cycle;Signal;HPM_P1;HPM_P2
2024/03/31 00:00:20;;;;;;;43.95;18.45;;;11.40;99.90;;;14.53;86.58;99126.19;5038543;28;20049;-83
2024/03/31 00:02:49;;;;;;;41.65;17.85;;;11.40;99.90;;;14.76;86.07;99112.97;5035578;28;20025;-82
2024/03/31 00:05:15;;;;;;;41.50;17.35;;;11.30;99.90;;;15.42;83.03;99131.25;5036993;28;20500;-82
2024/03/31 00:07:41;;;;;;;37.75;16.90;;;11.10;99.90;;;15.36;80.52;99125.78;5036602;28;20048;-83
2024/03/31 00:10:07;;;;;;;35.92;17.63;;;11.00;99.90;;;15.30;81.85;99109.63;5034571;28;20041;-82
2024/03/31 00:12:33;;;;;;;47.13;20.05;;;10.80;99.90;;;15.24;80.63;99101.41;5035990;28;20041;-82
2024/03/31 00:14:59;;;;;;;37.60;18.23;;;10.70;99.90;;;15.12;81.51;99120.19;5035544;28;20037;-83
2024/03/31 00:17:25;;;;;;;36.42;16.17;;;;;;;15.03;85.89;99127.38;5040008;28;20045;-82
2024/03/31 00:19:52;;;;;;;37.92;18.70;;;;;;;15.20;82.19;99138.00;5039842;28;20443;-82
2024/03/31 00:22:18;;;;;;;39.67;17.95;;;10.60;99.90;;;15.30;81.86;99142.59;5039606;28;20481;-82
2024/03/31 00:24:43;;;;;;;37.15;18.30;;;10.60;99.90;;;14.47;85.77;99151.22;5035879;28;20068;-83
2024/03/31 00:27:12;;;;;;;45.03;19.52;;;10.60;99.90;;;14.89;86.29;99165.63;5035972;28;20076;-83
2024/03/31 00:29:39;;;;;;;46.53;18.60;;;10.50;99.90;;;14.76;87.54;99159.63;5035399;28;20106;-82
2024/03/31 00:32:05;;;;;;;42.35;20.05;;;10.40;99.90;;;14.69;89.69;99164.56;5035111;28;20442;-82
2024/03/31 00:34:31;;;;;;;43.50;19.45;;;10.30;99.90;;;14.58;90.74;99162.94;5033587;28;20397;-82
2024/03/31 00:36:57;;;;;;;42.78;19.58;;;10.30;99.90;;;13.98;93.97;99164.47;5035138;28;20048;-83
2024/03/31 00:39:22;;;;;;;42.72;19.80;;;10.40;99.90;;;14.58;93.26;99171.19;5017240;28;20370;-81
2024/03/31 00:41:49;;;;;;;40.60;19.88;;;10.40;99.90;;;14.48;92.16;99147.38;5035003;28;20570;-82
2024/03/31 00:44:15;;;;;;;42.45;19.42;;;10.40;99.90;;;13.92;94.73;99166.41;5033462;28;20122;-82
2024/03/31 00:46:40;;;;;;;42.42;19.85;;;10.50;99.90;;;13.91;96.21;99145.56;5034379;28;20075;-82
2024/03/31 00:49:06;;;;;;;42.90;19.80;;;10.50;99.90;;;14.24;94.90;99137.81;5033074;28;20076;-82
2024/03/31 00:51:32;;;;;;;37.83;20.33;;;10.50;99.90;;;14.67;92.89;99147.56;5034211;28;20042;-82
2024/03/31 00:53:57;;;;;;;42.85;20.38;;;10.40;99.90;;;14.59;93.57;99145.41;5032915;28;20045;-82
2024/03/31 00:56:23;;;;;;;43.58;21.23;;;10.40;99.90;;;14.58;93.92;99155.56;5033005;28;20034;-82
2024/03/31 00:58:49;;;;;;;45.97;21.50;;;10.30;99.90;;;14.69;92.02;99153.59;5034009;28;20056;-81
2024/03/31 01:01:16;;;;;;;45.80;20.67;;;10.20;99.90;;;14.07;96.39;99140.06;5032918;28;20053;-82
2024/03/31 01:03:41;;;;;;;39.78;20.98;;;10.20;99.90;;;14.01;98.46;99146.63;5032772;28;20370;-82
2024/03/31 01:06:16;;;;;;;40.10;21.52;;;10.20;99.90;;;13.71;100.00;99131.88;5032808;28;20599;-82
2024/03/31 01:08:43;;;;;;;46.80;22.48;;;10.20;99.90;;;13.87;100.00;99130.78;5033872;28;20044;-83
2024/03/31 01:11:09;;;;;;;40.95;20.27;;;10.30;99.90;;;13.87;100.00;99122.53;5032570;28;20038;-82
2024/03/31 01:13:35;;;;;;;38.72;20.40;;;10.30;99.90;;;14.16;97.58;99123.84;5032441;28;20116;-81
2024/03/31 01:16:06;;;;;;;36.65;19.90;;;10.40;99.90;;;14.73;92.16;99107.25;5016667;28;20041;-82
2024/03/31 01:18:33;;;;;;;40.65;19.63;;;10.20;99.90;;;15.13;87.88;99110.03;5033714;28;20527;-81
2024/03/31 01:21:01;;;;;;;41.28;21.10;;;10.10;99.90;;;15.20;85.82;99127.81;5032291;28;20037;-81
2024/03/31 01:23:44;;;;;;;40.05;20.85;;;9.90;99.90;;;14.88;88.17;99125.56;5033668;28;20044;-81
2024/03/31 01:26:13;;;;;;;37.40;19.92;;;9.80;99.90;;;14.61;90.11;99119.31;5033677;28;20447;-82
2024/03/31 01:28:38;;;;;;;39.43;20.60;;;9.70;99.90;;;14.16;94.55;99138.41;5048575;28;20120;-82
2024/03/31 01:31:04;;;;;;;38.42;21.88;;;9.60;99.90;;;14.16;96.56;99135.66;5052250;28;20272;-81
2024/03/31 01:33:30;;;;;;;44.92;22.30;;;9.50;99.90;;;13.86;97.09;99137.34;5053495;28;20075;-82
2024/03/31 01:36:01;;;;;;;38.83;20.63;;;9.40;99.90;;;14.41;95.72;99144.09;5035542;28;20033;-81
2024/03/31 01:38:26;;;;;;;42.17;20.60;;;9.40;99.90;;;14.53;93.45;99145.41;5053339;28;20064;-81
2024/03/31 01:40:52;;;;;;;41.42;21.23;;;9.40;99.90;;;14.50;92.38;99137.75;5053357;28;20496;-81
2024/03/31 01:43:18;;;;;;;38.10;21.08;;;9.40;99.90;;;14.68;90.97;99149.22;5035439;28;20053;-82
2024/03/31 01:45:44;;;;;;;44.38;22.35;;;9.50;99.90;;;14.70;90.64;99157.16;5035432;28;20041;-81
2024/03/31 01:48:10;;;;;;;41.03;21.52;;;9.50;99.90;;;13.98;96.54;99159.00;5053383;28;20033;-81
2024/03/31 01:50:36;;;;;;;43.10;21.98;;;9.50;99.90;;;14.48;94.00;99159.16;5052982;28;20138;-81
2024/03/31 01:53:01;;;;;;;39.80;21.08;;;9.40;99.90;;;14.43;92.94;99167.41;5035313;28;20381;-81
2024/03/31 01:55:27;;;;;;;41.28;21.25;;;9.40;99.90;;;14.57;92.35;99175.03;5051888;28;20041;-81
2024/03/31 01:57:53;;;;;;;38.05;22.38;;;9.50;99.90;;;14.70;91.10;99168.97;5053153;28;20037;-81
2024/03/31 02:00:20;;;;;;;38.15;20.95;;;9.50;99.90;;;14.70;90.13;99166.22;5035032;28;20124;-82
2024/03/31 02:02:47;;;;;;;44.60;22.15;;;9.50;99.90;;;13.69;95.54;99161.47;5035056;28;20207;-81
2024/03/31 02:05:13;;;;;;;38.25;20.83;;;9.40;99.90;;;13.54;100.00;99165.03;5035504;28;20036;-81
2024/03/31 02:07:39;;;;;;;38.72;21.40;;;9.50;99.90;;;13.70;100.00;99163.94;5052776;28;20039;-82
2024/03/31 02:10:05;;;;;;;35.90;21.55;;;9.50;99.90;;;14.27;98.92;99168.53;5052759;28;20412;-82
2024/03/31 02:12:33;;;;;;;39.55;21.77;;;9.40;99.90;;;14.16;95.67;99171.31;5052421;28;20045;-81
2024/03/31 02:14:59;;;;;;;37.97;21.08;;;9.40;99.90;;;14.16;95.12;99174.03;5052786;28;20377;-81
2024/03/31 02:17:24;;;;;;;36.97;21.58;;;9.30;99.90;;;13.42;100.00;99168.00;5052793;28;20052;-81
2024/03/31 02:19:50;;;;;;;33.75;20.52;;;9.10;99.90;;;13.60;100.00;99175.72;5051107;28;20033;-81
2024/03/31 02:22:17;;;;;;;35.78;20.73;;;9.00;99.90;;;13.78;99.51;99177.09;5051429;28;20040;-81
2024/03/31 02:24:46;;;;;;;35.90;21.27;;;8.90;99.90;;;13.94;98.27;99186.13;5053073;28;20041;-80
2024/03/31 02:27:12;;;;;;;39.10;21.73;;;8.90;99.90;;;13.71;100.00;99182.03;5051630;28;20507;-81
2024/03/31 02:29:39;;;;;;;40.70;22.45;;;8.90;99.90;;;13.86;100.00;99183.94;5034975;28;20033;-81
2024/03/31 02:32:06;;;;;;;37.70;22.37;;;8.90;99.90;;;13.46;100.00;99174.59;5053258;28;20361;-81
2024/03/31 02:34:32;;;;;;;37.20;22.90;;;8.90;99.90;;;13.97;100.00;99164.75;5053125;28;20025;-80
2024/03/31 02:36:58;;;;;;;34.80;22.42;;;9.00;99.90;;;14.25;97.59;99160.59;5035188;28;20043;-81
2024/03/31 02:39:24;;;;;;;43.75;22.48;;;9.00;99.90;;;14.26;95.84;99161.41;5035132;28;20033;-80
2024/03/31 02:41:50;;;;;;;37.95;22.45;;;9.00;99.90;;;14.20;96.12;99164.16;5018621;28;20500;-81
2024/03/31 02:44:16;;;;;;;39.90;21.83;;;9.00;99.90;;;13.82;97.97;99177.38;5052869;28;20066;-81
2024/03/31 02:46:42;;;;;;;43.65;23.10;;;9.00;99.90;;;13.12;100.00;99181.34;5052975;28;20040;-81
2024/03/31 02:49:08;;;;;;;40.75;23.33;;;9.00;99.90;;;13.19;100.00;99150.97;5018746;28;20041;-80
2024/03/31 02:51:35;;;;;;;35.95;22.42;;;9.00;99.90;;;13.27;100.00;99158.66;5034829;28;20045;-80
2024/03/31 02:54:01;;;;;;;40.65;23.77;;;9.00;99.90;;;12.62;100.00;99173.53;5034827;28;20025;-80
2024/03/31 02:56:28;;;;;;;40.08;23.60;;;9.00;99.90;;;13.07;100.00;99175.84;5034670;28;20140;-81
2024/03/31 02:58:54;;;;;;;41.17;23.52;;;9.00;99.90;;;13.35;100.00;99171.81;5052627;28;20508;-80
2024/03/31 03:01:19;;;;;;;39.22;23.25;;;8.90;99.90;;;13.63;100.00;99163.38;5034605;28;20109;-81
2024/03/31 03:03:47;;;;;;;43.65;23.60;;;8.90;99.90;;;13.81;100.00;99175.72;5051282;28;20290;-80
2024/03/31 03:06:13;;;;;;;38.00;23.67;;;8.90;99.90;;;13.54;100.00;99176.81;5051302;28;20052;-80
2024/03/31 03:08:39;;;;;;;39.08;23.42;;;8.90;99.90;;;13.15;100.00;99180.00;5034496;28;20033;-81
2024/03/31 03:11:05;;;;;;;40.88;24.90;;;8.90;99.90;;;12.80;100.00;99182.34;5051326;28;20032;-81
2024/03/31 03:13:31;;;;;;;38.30;22.65;;;9.10;99.90;;;12.92;100.00;99182.09;5051169;28;20382;-80
2024/03/31 03:16:01;;;;;;;39.28;23.88;;;9.20;99.90;;;13.18;100.00;99190.41;5052843;28;20067;-81
2024/03/31 03:18:26;;;;;;;45.20;24.05;;;9.20;99.90;;;13.41;100.00;99177.31;5051235;28;20037;-81
2024/03/31 03:20:56;;;;;;;38.17;24.23;;;9.10;99.90;;;13.24;100.00;99184.66;5052264;28;20079;-81
2024/03/31 03:23:22;;;;;;;32.70;22.65;;;9.10;99.90;;;13.59;100.00;99178.72;5034136;28;20438;-80
2024/03/31 03:25:55;;;;;;;38.22;24.05;;;9.10;99.90;;;13.92;100.00;99199.28;5017601;28;20045;-81
2024/03/31 03:28:21;;;;;;;40.40;24.48;;;9.00;99.90;;;13.75;100.00;99187.78;5051903;28;20029;-81
2024/03/31 03:30:47;;;;;;;39.58;24.27;;;9.00;99.90;;;13.08;100.00;99185.72;5034073;28;20513;-81
2024/03/31 03:33:15;;;;;;;40.83;25.92;;;9.10;99.90;;;13.66;100.00;99193.81;5037386;28;20075;-81
2024/03/31 03:35:41;;;;;;;42.88;25.35;;;9.10;99.90;;;13.91;100.00;99170.22;5037855;28;20029;-81
2024/03/31 03:38:09;;;;;;;41.80;25.75;;;8.90;99.90;;;13.70;100.00;99180.38;5037880;28;20048;-81
2024/03/31 03:40:35;;;;;;;40.85;25.15;;;8.90;99.90;;;13.32;100.00;99183.31;5054436;28;20123;-81
2024/03/31 03:43:03;;;;;;;41.27;26.70;;;8.90;99.90;;;13.23;100.00;99204.09;5037929;28;20033;-81
2024/03/31 03:45:29;;;;;;;37.53;25.15;;;8.90;99.90;;;13.58;100.00;99201.72;5054284;28;20477;-81
2024/03/31 03:47:55;;;;;;;43.90;27.33;;;8.80;99.90;;;13.84;100.00;99199.00;5037854;28;20045;-81
2024/03/31 03:50:21;;;;;;;43.05;25.63;;;8.70;99.90;;;13.69;100.00;99183.38;5054323;28;20048;-81
2024/03/31 03:52:46;;;;;;;44.67;26.50;;;8.70;99.90;;;13.72;100.00;99194.63;5037616;28;20101;-81
2024/03/31 03:55:12;;;;;;;47.67;27.95;;;8.70;99.90;;;13.66;100.00;99198.47;5037669;28;20040;-81
2024/03/31 03:57:38;;;;;;;44.17;27.13;;;8.70;99.90;;;13.75;100.00;99209.69;5037695;28;20032;-81
2024/03/31 04:00:05;;;;;;;41.67;27.33;;;8.70;99.90;;;13.40;100.00;99192.09;5054860;28;20095;-80
2024/03/31 04:02:41;;;;;;;38.97;26.27;;;8.70;99.90;;;13.91;100.00;99205.03;5056559;28;20044;-80
2024/03/31 04:05:07;;;;;;;45.05;27.35;;;8.70;99.90;;;13.80;100.00;99209.72;5038289;28;20025;-81
2024/03/31 04:07:33;;;;;;;44.97;27.23;;;8.80;99.90;;;13.92;100.00;99202.03;5055672;28;20037;-80
2024/03/31 04:09:58;;;;;;;44.72;28.33;;;8.80;99.90;;;13.42;100.00;99189.91;5037958;28;20036;-81
2024/03/31 04:12:24;;;;;;;46.95;29.27;;;8.80;99.90;;;12.88;100.00;99205.63;5044220;28;20032;-80
2024/03/31 04:14:50;;;;;;;48.05;28.55;;;8.80;99.90;;;13.51;100.00;99199.25;5048920;28;20029;-80
2024/03/31 04:17:16;;;;;;;47.40;28.90;;;8.80;99.90;;;13.71;100.00;99181.19;5066667;28;20471;-80
2024/03/31 04:19:41;;;;;;;41.15;27.25;;;8.80;99.90;;;13.00;100.00;99189.81;5065319;28;20041;-80
2024/03/31 04:22:07;;;;;;;47.53;29.33;;;8.90;99.90;;;12.87;100.00;99173.88;5058627;28;20045;-80
2024/03/31 04:24:33;;;;;;;40.53;26.25;;;8.90;99.90;;;13.58;100.00;99182.56;5037112;28;20044;-80
2024/03/31 04:26:59;;;;;;;43.92;28.55;;;8.90;99.90;;;13.63;100.00;99180.66;5054920;28;20438;-80
2024/03/31 04:29:25;;;;;;;43.40;28.85;;;8.90;99.90;;;13.69;100.00;99183.38;5037146;28;20037;-80
2024/03/31 04:31:57;;;;;;;43.65;28.15;;;8.90;99.90;;;13.48;100.00;99181.47;5037238;28;20136;-81
2024/03/31 04:34:30;;;;;;;46.65;29.50;;;8.90;99.90;;;12.72;100.00;99183.66;5037973;28;20033;-80
2024/03/31 04:36:57;;;;;;;49.53;28.13;;;9.00;99.90;;;13.32;100.00;99180.59;5036916;28;20033;-81
2024/03/31 04:39:24;;;;;;;43.80;28.48;;;9.00;99.90;;;13.68;100.00;99185.31;5036718;28;20025;-80
2024/03/31 04:41:54;;;;;;;43.37;29.37;;;8.90;99.90;;;13.88;100.00;99180.91;5036761;28;20047;-81
2024/03/31 04:44:20;;;;;;;44.72;28.05;;;9.00;99.90;;;13.77;100.00;99186.41;5036196;28;20036;-81
2024/03/31 04:46:49;;;;;;;42.33;28.00;;;9.00;99.90;;;13.85;100.00;99195.19;5036493;28;20033;-80
2024/03/31 04:49:17;;;;;;;42.80;28.63;;;9.00;99.90;;;13.68;100.00;99184.47;5036576;28;20110;-80
2024/03/31 04:51:43;;;;;;;43.20;28.20;;;9.00;99.90;;;13.73;100.00;99190.81;5036393;28;20039;-81
2024/03/31 04:54:09;;;;;;;43.72;29.60;;;8.90;99.90;;;13.78;100.00;99187.22;5036518;28;20405;-81
2024/03/31 04:56:35;;;;;;;48.13;28.88;;;8.90;99.90;;;14.15;100.00;99194.34;5036437;28;20035;-80
2024/03/31 04:59:01;;;;;;;44.38;29.42;;;8.90;99.90;;;14.08;100.00;99191.88;5036381;28;20045;-81
2024/03/31 05:01:27;;;;;;;47.03;29.52;;;8.90;99.90;;;13.92;100.00;99184.75;5036181;28;20047;-80
2024/03/31 05:03:53;;;;;;;46.10;30.27;;;8.90;99.90;;;13.60;100.00;99194.91;5052986;28;20036;-81
2024/03/31 05:06:18;;;;;;;44.28;29.50;;;8.90;99.90;;;14.08;100.00;99197.34;5019965;28;20091;-81
2024/03/31 05:08:44;;;;;;;44.17;30.77;;;8.90;99.90;;;14.12;100.00;99205.03;5036228;28;20051;-81
2024/03/31 05:11:10;;;;;;;47.50;30.98;;;8.90;99.90;;;13.72;100.00;99185.56;5019786;28;20477;-81
2024/03/31 05:13:36;;;;;;;44.63;30.77;;;8.90;99.90;;;12.87;100.00;99195.78;5036083;28;20508;-81
2024/03/31 05:16:09;;;;;;;45.95;31.33;;;8.90;99.90;;;12.27;100.00;99185.09;5052765;28;20136;-81
2024/03/31 05:18:36;;;;;;;46.33;29.90;;;9.00;99.90;;;12.33;100.00;99184.03;5035782;28;20044;-81
2024/03/31 05:21:07;;;;;;;47.92;30.45;;;9.00;99.90;;;12.36;100.00;99181.59;5036071;28;20123;-82
2024/03/31 05:23:35;;;;;;;47.42;29.65;;;9.10;99.90;;;12.34;100.00;99182.94;5052551;28;20037;-82
2024/03/31 05:26:02;;;;;;;43.00;29.35;;;9.10;99.90;;;12.59;100.00;99173.22;5052557;28;20043;-81
2024/03/31 05:28:29;;;;;;;41.17;29.60;;;9.10;99.90;;;13.36;100.00;99176.22;5052359;28;20523;-81
2024/03/31 05:30:55;;;;;;;44.35;29.30;;;9.00;99.90;;;13.64;100.00;99170.50;5052281;28;20037;-81
2024/03/31 05:33:22;;;;;;;42.90;30.00;;;9.00;99.90;;;13.54;100.00;99170.50;5035677;28;20035;-81
2024/03/31 05:35:53;;;;;;;46.33;31.92;;;9.00;99.90;;;12.97;100.00;99168.44;5052416;28;20481;-81
2024/03/31 05:38:19;;;;;;;48.67;32.63;;;9.00;99.90;;;12.55;100.00;99164.72;5035646;28;20097;-82
2024/03/31 05:40:51;;;;;;;46.83;33.42;;;9.10;99.90;;;11.92;100.00;99151.75;5035637;28;20151;-80
2024/03/31 05:43:17;;;;;;;49.83;33.92;;;9.10;99.90;;;11.89;100.00;99138.59;5035546;28;20488;-79
2024/03/31 05:45:43;;;;;;;49.00;32.97;;;9.10;99.90;;;11.99;100.00;99133.19;5051873;28;20031;-81
2024/03/31 05:48:11;;;;;;;48.17;33.58;;;9.10;99.90;;;12.03;100.00;99147.19;5035404;28;20037;-80
2024/03/31 05:50:42;;;;;;;59.53;36.55;;;9.00;99.90;;;12.57;100.00;99164.47;5035335;28;20043;-81
2024/03/31 05:53:07;;;;;;;52.53;37.35;;;9.00;99.90;;;12.48;100.00;99170.44;5035468;28;20037;-82
2024/03/31 05:55:34;;;;;;;60.45;40.75;;;9.00;99.90;;;12.02;100.00;99172.88;5034680;28;20111;-81
2024/03/31 05:58:01;;;;;;;58.08;40.90;;;9.10;99.90;;;12.18;100.00;99184.75;5051964;28;20117;-80
2024/03/31 06:00:27;;;;;;;61.78;42.25;;;9.20;99.90;;;12.17;100.00;99170.25;5035084;28;20049;-81
2024/03/31 06:02:53;;;;;;;64.75;44.28;;;9.20;99.90;;;12.47;100.00;99192.56;5035178;28;20480;-80
2024/03/31 06:05:19;;;;;;;69.90;47.03;;;9.30;99.90;;;12.49;100.00;99182.19;5053055;28;20040;-81
2024/03/31 06:07:51;;;;;;;65.82;45.70;;;9.40;99.90;;;12.31;100.00;99175.25;5035147;28;20087;-82
2024/03/31 06:10:17;;;;;;;60.15;41.35;;;9.40;99.90;;;12.51;100.00;99164.44;5035086;28;20041;-81
2024/03/31 06:12:43;;;;;;;57.88;41.17;;;9.40;99.90;;;12.29;100.00;99191.09;5034921;28;20040;-82
2024/03/31 06:15:09;;;;;;;57.50;40.65;;;9.40;99.90;;;12.72;100.00;99188.31;5035211;28;20039;-81
2024/03/31 06:17:36;;;;;;;57.70;40.67;;;9.40;99.90;;;12.44;100.00;99196.66;5051559;28;20094;-81
2024/03/31 06:20:03;;;;;;;60.25;41.33;;;9.30;99.90;;;12.17;100.00;99174.91;5034919;28;20459;-81
2024/03/31 06:22:30;;;;;;;62.10;42.25;;;9.40;99.90;;;12.14;100.00;99200.84;5051525;28;20044;-81
2024/03/31 06:24:55;;;;;;;67.85;44.60;;;9.40;99.90;;;12.13;100.00;99193.72;5034748;28;20028;-80
2024/03/31 06:27:22;;;;;;;62.47;44.78;;;9.40;99.90;;;12.06;100.00;99193.13;5051436;28;20431;-79
2024/03/31 06:29:50;;;;;;;65.63;44.15;;;9.30;99.90;;;12.09;100.00;99200.81;5034671;28;20086;-79
2024/03/31 06:32:17;;;;;;;62.58;45.85;;;9.40;99.90;;;12.17;100.00;99172.16;5034860;28;20373;-82
2024/03/31 06:34:44;;;;;;;64.25;47.03;;;9.40;99.90;;;12.07;100.00;99200.25;5034783;28;20485;-81
2024/03/31 06:37:10;;;;;;;66.95;44.38;;;9.40;99.90;;;12.34;100.00;99186.50;5051341;28;20037;-82
2024/03/31 06:39:36;;;;;;;63.20;43.88;;;9.40;99.90;;;12.57;100.00;99198.09;5034693;28;20035;-82
2024/03/31 06:42:02;;;;;;;63.33;41.88;;;9.40;99.90;;;12.61;100.00;99188.28;5034578;28;20029;-82
2024/03/31 06:44:28;;;;;;;58.28;41.25;;;9.40;99.90;;;12.83;100.00;99191.94;5051175;28;20037;-82
2024/03/31 06:46:54;;;;;;;60.65;42.75;;;9.40;99.90;;;12.54;100.00;99192.34;5051239;28;20051;-83
2024/03/31 06:49:20;;;;;;;62.83;43.83;;;9.30;99.90;;;12.62;100.00;99200.03;5034650;28;20041;-83
2024/03/31 06:51:47;;;;;;;59.97;43.90;;;9.30;99.90;;;12.27;100.00;99204.22;5034383;28;20033;-83
2024/03/31 06:54:13;;;;;;;60.08;44.20;;;9.30;99.90;;;12.28;100.00;99195.75;5052281;28;20037;-83
2024/03/31 06:56:39;;;;;;;63.75;45.15;;;9.40;99.90;;;12.38;100.00;99197.72;5051109;28;20385;-82
2024/03/31 06:59:04;;;;;;;64.57;46.03;;;9.30;99.90;;;12.90;100.00;99204.28;5034113;28;20504;-82
2024/03/31 07:01:30;;;;;;;64.00;45.63;;;9.40;99.90;;;13.26;100.00;99194.53;5034400;28;20094;-82
2024/03/31 07:03:56;;;;;;;64.68;46.17;;;9.40;99.90;;;12.90;100.00;99189.75;5034362;28;20099;-82
2024/03/31 07:06:22;;;;;;;63.75;46.90;;;9.40;99.90;;;13.48;100.00;99197.06;5036383;28;20459;-80
2024/03/31 07:08:48;;;;;;;62.88;45.65;;;9.50;99.90;;;13.37;100.00;99210.72;5038553;28;20104;-83
2024/03/31 07:11:16;;;;;;;;;;;9.50;99.90;;;14.24;100.00;99211.88;5038856;28;20107;-81
2024/03/31 07:13:42;;;;;;;65.53;46.58;;;9.50;99.90;;;14.42;100.00;99217.88;5038675;28;20011;-82
2024/03/31 07:16:08;;;;;;;58.22;43.30;;;9.60;99.90;;;14.72;100.00;99205.22;5038595;28;20055;-82
2024/03/31 07:18:33;;;;;;;64.97;46.38;;;9.70;99.90;;;14.46;100.00;99218.97;5056333;28;20045;-81
2024/03/31 07:20:59;;;;;;;66.15;47.45;;;9.70;99.90;;;14.38;100.00;99222.28;5038429;28;20037;-81
2024/03/31 07:23:25;;;;;;;63.30;45.90;;;9.80;99.90;;;14.62;100.00;99230.72;5056097;28;20036;-81
2024/03/31 07:25:51;;;;;;;62.63;43.78;;;9.90;99.90;;;14.63;100.00;99234.31;5038250;28;20037;-81
2024/03/31 07:28:17;;;;;;;60.15;45.08;;;9.90;99.90;;;14.63;100.00;99235.13;5055988;28;20037;-81
2024/03/31 07:30:45;;;;;;;62.00;46.63;;;9.90;99.90;;;14.19;100.00;99235.72;5054487;28;20535;-81
2024/03/31 07:33:11;;;;;;;66.88;46.78;;;9.90;99.90;;;14.34;100.00;99245.91;5037979;28;20040;-82
2024/03/31 07:35:37;;;;;;;64.32;45.90;;;9.80;99.90;;;14.60;100.00;99240.38;5037731;28;20037;-82
2024/03/31 07:38:03;;;;;;;61.67;46.75;;;9.90;99.90;;;14.70;100.00;99248.56;5054564;28;20095;-82
2024/03/31 07:40:30;;;;;;;63.97;46.50;;;9.90;99.90;;;14.65;100.00;99238.41;5056018;28;20041;-83
2024/03/31 07:42:56;;;;;;;70.43;49.43;;;9.80;99.90;;;14.69;100.00;99244.16;5055904;28;20087;-83
2024/03/31 07:45:22;;;;;;;72.47;51.17;;;9.80;99.90;;;14.40;100.00;99244.78;5055747;28;20029;-82
2024/03/31 07:47:48;;;;;;;67.88;51.38;;;9.80;99.90;;;14.17;100.00;99249.75;5055703;28;20566;-83
2024/03/31 07:50:14;;;;;;;68.07;50.33;;;9.70;99.90;;;14.45;100.00;99235.69;5054279;28;20025;-83
2024/03/31 07:52:41;;;;;;;67.25;50.35;;;9.70;99.90;;;14.40;100.00;99231.06;5055594;28;20040;-83
2024/03/31 07:55:07;;;;;;;70.15;52.10;;;9.70;99.90;;;13.63;100.00;99227.22;5055741;28;20049;-82
2024/03/31 07:57:33;;;;;;;71.90;50.25;;;9.70;99.90;;;13.74;100.00;99229.97;5055518;28;20519;-83
2024/03/31 07:59:58;;;;;;;70.50;51.17;;;9.70;99.90;;;13.89;100.00;99243.72;5055279;28;20167;-83
2024/03/31 08:02:24;;;;;;;76.18;54.83;;;9.70;99.90;;;14.20;100.00;99249.19;5055540;28;20052;-82
2024/03/31 08:04:50;;;;;;;75.63;57.17;;;9.70;99.90;;;14.49;100.00;99256.81;5055395;28;20036;-83
2024/03/31 08:07:15;;;;;;;76.10;56.97;;;9.70;99.90;;;14.57;100.00;99268.34;5037484;28;20044;-83
2024/03/31 08:09:41;;;;;;;83.07;58.83;;;9.70;99.90;;;14.40;100.00;99266.72;5055333;28;20047;-83
2024/03/31 08:12:07;;;;;;;78.65;58.58;;;9.70;99.90;;;14.24;100.00;99269.47;5055203;28;20071;-83
2024/03/31 08:14:32;;;;;;;75.43;57.50;;;9.60;99.90;;;14.28;100.00;99274.41;5055132;28;20037;-83
2024/03/31 08:16:58;;;;;;;81.85;60.45;;;9.70;99.90;;;13.98;100.00;99276.88;5054825;28;20041;-83
2024/03/31 08:19:25;;;;;;;81.88;62.10;;;9.70;99.90;;;13.84;100.00;99273.84;5054661;28;20102;-82
2024/03/31 08:21:50;;;;;;;81.95;60.92;;;9.70;99.90;;;13.86;100.00;99274.41;5037216;28;20033;-83
2024/03/31 08:24:17;;;;;;;77.20;59.35;;;9.70;99.90;;;13.83;100.00;99280.44;5055045;28;20044;-83
2024/03/31 08:26:44;;;;;;;84.85;62.60;;;9.80;99.90;;;14.12;100.00;99274.44;5054806;28;20158;-83
2024/03/31 08:29:10;;;;;;;80.68;61.15;;;9.80;99.90;;;14.39;100.00;99265.88;5055121;28;20060;-83
2024/03/31 08:31:36;;;;;;;87.10;63.28;;;9.90;99.90;;;14.56;100.00;99266.69;5054904;28;20404;-83
2024/03/31 08:34:01;;;;;;;81.10;62.78;;;9.90;99.90;;;14.70;100.00;99275.16;5055163;28;20028;-83
2024/03/31 08:36:27;;;;;;;82.45;61.28;;;10.00;99.90;;;14.86;100.00;99256.78;5054973;28;20037;-83
2024/03/31 08:38:53;;;;;;;84.28;62.67;;;10.20;99.90;;;14.89;100.00;99264.47;5055082;28;20600;-84
2024/03/31 08:42:10;;;;;;;77.78;57.60;;;10.30;99.90;;;15.19;100.00;99274.50;5054562;28;20053;-84
2024/03/31 08:44:36;;;;;;;74.72;59.03;;;10.40;99.90;;;15.22;100.00;99267.63;5054639;28;20048;-83
2024/03/31 08:47:05;;;;;;;71.32;54.55;;;10.70;99.90;;;15.25;100.00;99269.81;5054665;28;20045;-83
2024/03/31 08:49:31;;;;;;;74.43;56.80;;;11.00;99.90;;;15.73;100.00;99272.00;5054645;28;20037;-83
2024/03/31 08:51:57;;;;;;;68.85;53.72;;;11.20;99.90;;;15.66;100.00;99277.84;5054652;28;20624;-83
2024/03/31 08:54:24;;;;;;;67.93;50.25;;;11.40;99.90;;;15.71;100.00;99276.97;5054860;28;20056;-82
2024/03/31 08:56:49;;;;;;;62.40;48.85;;;11.60;99.90;;;15.74;100.00;99281.09;5055270;28;20040;-83
2024/03/31 08:59:15;;;;;;;64.72;47.72;;;11.90;99.90;;;16.05;100.00;99283.66;5055624;28;20095;-83
2024/03/31 09:01:41;;;;;;;58.20;46.92;;;11.90;99.90;;;15.75;100.00;99278.03;5065325;28;20468;-83
2024/03/31 09:04:07;;;;;;;63.70;47.28;;;11.90;99.90;;;16.53;100.00;99272.78;5069971;28;20037;-82
2024/03/31 09:06:33;;;;;;;60.47;45.95;;;12.10;99.90;;;16.37;100.00;99274.88;5066675;28;20551;-83
2024/03/31 09:09:04;;;;;;;62.05;48.00;;;12.10;99.90;;;16.79;100.00;99267.03;5059908;28;20048;-83
2024/03/31 09:11:31;;;;;;;58.33;46.63;;;12.10;99.90;;;16.28;100.00;99271.09;5038740;28;20037;-82
2024/03/31 09:13:57;;;;;;;59.20;47.10;;;12.10;99.90;;;16.73;99.75;99268.19;5054941;28;20116;-83
2024/03/31 09:16:24;;;;;;;60.95;46.50;;;12.10;99.90;;;15.92;100.00;99257.63;5036741;28;20140;-82
2024/03/31 09:18:50;;;;;;;60.33;45.92;;;12.00;99.90;;;16.05;100.00;99264.41;5054198;28;20043;-82
2024/03/31 09:21:16;;;;;;;61.67;45.17;;;12.00;99.90;;;16.38;100.00;99276.50;5035954;28;20432;-83
2024/03/31 09:23:42;;;;;;;60.85;47.10;;;12.00;99.90;;;16.61;100.00;99267.75;5036270;28;20041;-82
2024/03/31 09:26:08;;;;;;;58.53;45.28;;;12.00;99.90;;;15.50;100.00;99259.78;5054269;28;20036;-83
2024/03/31 09:28:36;;;;;;;62.00;44.97;;;12.00;99.90;;;15.81;100.00;99252.19;5053878;28;20037;-83
2024/03/31 09:31:02;;;;;;;55.60;43.22;;;12.00;99.90;;;15.58;100.00;99258.38;5036019;28;20072;-84
2024/03/31 09:33:37;;;;;;;56.60;44.10;;;11.90;99.90;;;16.00;100.00;99256.19;5038648;28;20520;-83
2024/03/31 09:36:08;;;;;;;57.53;45.42;;;12.10;99.90;;;15.08;100.00;99257.22;5053872;28;20072;-83
2024/03/31 09:38:33;;;;;;;58.45;44.72;;;12.00;99.90;;;15.38;100.00;99247.22;5053758;28;20086;-83
2024/03/31 09:41:00;;;;;;;63.60;47.28;;;11.80;99.90;;;15.35;100.00;99257.97;5053854;28;20036;-83
2024/03/31 09:43:26;;;;;;;64.53;47.08;;;11.90;99.90;;;14.70;100.00;99254.06;5054821;28;20468;-83
2024/03/31 09:45:52;;;;;;;61.25;46.40;;;11.60;99.90;;;15.64;100.00;99266.28;5038840;28;20103;-83
2024/03/31 09:48:25;;;;;;;61.00;46.92;;;11.80;99.90;;;14.95;100.00;99260.59;5035977;28;20551;-83
2024/03/31 09:51:03;;;;;;;62.63;46.88;;;11.70;99.90;;;14.88;100.00;99260.88;5053728;28;20036;-83
2024/03/31 09:53:31;;;;;;;61.00;47.27;;;11.50;99.90;;;14.59;100.00;99249.69;5053824;28;20607;-83
2024/03/31 09:56:03;;;;;;;62.35;46.95;;;11.50;99.90;;;14.98;100.00;99257.28;5053614;28;20480;-83
2024/03/31 09:58:33;;;;;;;62.13;48.10;;;11.50;99.90;;;14.61;100.00;99242.00;5053298;28;20044;-83
2024/03/31 10:01:02;;;;;;;62.53;47.80;;;11.50;99.90;;;14.56;100.00;99242.84;5053322;28;20151;-83
2024/03/31 10:03:38;;;;;;;62.25;48.17;;;11.40;99.90;;;14.68;100.00;99240.59;5053484;28;20029;-83